Time;durP1;ratioP1;P1;durP2;ratioP2;P2;SDS_P1;SDS_P2;PMS_P1;PMS_P2;Temp;Humidity;BMP_temperature;BMP_pressure;BME280_temperature;BME280_humidity;BME280_pressure;Samples;Min_cycle;Max_cycle;Signal;HPM_P1;HPM_P2
2023/03/14 00:01:36;;;;;;;36.42;8.20;;;9.30;99.90;;;;;;4989573;28;20053;-76
2023/03/14 00:04:05;;;;;;;36.67;10.15;;;9.30;99.90;;;;;;4995052;28;20275;-77
2023/03/14 00:06:31;;;;;;;22.65;8.27;;;9.30;99.90;;;;;;4969422;28;20074;-77
2023/03/14 00:08:57;;;;;;;32.40;8.65;;;9.30;99.90;;;;;;4975889;28;20440;-77
2023/03/14 00:11:23;;;;;;;35.15;8.88;;;9.30;99.90;;;;;;4985612;28;20146;-76
2023/03/14 00:13:50;;;;;;;34.25;8.70;;;9.40;99.90;;;;;;4985092;28;20048;-76
2023/03/14 00:16:16;;;;;;;25.10;8.25;;;9.40;99.90;;;;;;4988719;28;20531;-77
2023/03/14 00:18:42;;;;;;;25.00;7.97;;;9.40;99.90;;;;;;4987199;28;20459;-77
2023/03/14 00:21:10;;;;;;;29.50;7.38;;;9.60;99.90;;;;;;4981841;28;20042;-77
2023/03/14 00:23:37;;;;;;;27.20;6.63;;;9.60;99.90;;;;;;4988460;28;20074;-77
2023/03/14 00:26:06;;;;;;;23.58;8.70;;;9.50;99.90;;;;;;4976565;28;20077;-77
2023/03/14 00:28:31;;;;;;;20.33;8.07;;;9.60;99.90;;;;;;4979615;28;20050;-77
2023/03/14 00:30:57;;;;;;;30.27;7.93;;;9.50;99.90;;;;;;4988415;28;20129;-77
2023/03/14 00:33:23;;;;;;;25.58;9.25;;;9.60;99.90;;;;;;4989109;28;20141;-77
2023/03/14 00:35:59;;;;;;;32.63;8.55;;;9.70;99.90;;;;;;4986906;28;20053;-77
2023/03/14 00:38:25;;;;;;;25.58;8.55;;;9.60;99.90;;;;;;4990486;28;20054;-77
2023/03/14 00:40:52;;;;;;;21.42;8.85;;;9.70;99.90;;;;;;4985376;28;20046;-77
2023/03/14 00:43:18;;;;;;;35.63;7.82;;;9.70;99.90;;;;;;4990319;28;20089;-77
2023/03/14 00:45:44;;;;;;;33.60;8.45;;;9.70;99.90;;;;;;4988799;28;20554;-77
2023/03/14 00:48:09;;;;;;;28.77;8.75;;;9.80;99.90;;;;;;4988798;28;20043;-77
2023/03/14 00:50:35;;;;;;;24.45;8.50;;;9.80;99.90;;;;;;4988845;28;20050;-77
2023/03/14 00:53:00;;;;;;;15.55;7.20;;;9.90;99.90;;;;;;4975376;28;20507;-77
2023/03/14 00:55:26;;;;;;;18.52;8.45;;;9.90;99.90;;;;;;4989269;28;20481;-77
2023/03/14 00:57:52;;;;;;;31.42;9.60;;;9.90;99.90;;;;;;4988494;28;20157;-77
2023/03/14 01:00:17;;;;;;;24.00;7.82;;;9.90;99.90;;;;;;4976414;28;20042;-76
2023/03/14 01:02:43;;;;;;;27.10;9.50;;;10.00;99.90;;;;;;4976976;28;20469;-77
2023/03/14 01:05:10;;;;;;;26.45;9.05;;;10.00;99.90;;;;;;4975868;28;20073;-77
2023/03/14 01:07:36;;;;;;;20.08;8.15;;;10.00;99.90;;;;;;4988220;28;20160;-77
2023/03/14 01:10:04;;;;;;;22.45;7.60;;;10.00;99.90;;;;;;4978613;28;20476;-77
2023/03/14 01:12:30;;;;;;;18.08;8.27;;;10.00;99.90;;;;;;4988485;28;20515;-77
2023/03/14 01:14:57;;;;;;;34.45;9.07;;;10.00;99.90;;;;;;4962562;28;20058;-77
2023/03/14 01:17:23;;;;;;;18.23;8.98;;;10.10;99.90;;;;;;4969864;28;20042;-77
2023/03/14 01:19:48;;;;;;;24.55;9.48;;;10.10;99.90;;;;;;4975406;28;20070;-75
2023/03/14 01:22:14;;;;;;;18.83;8.70;;;10.10;99.90;;;;;;4998318;28;20148;-77
2023/03/14 01:24:40;;;;;;;20.90;9.35;;;10.10;99.90;;;;;;4971568;28;20837;-76
2023/03/14 01:27:07;;;;;;;21.55;7.93;;;10.10;99.90;;;;;;4975875;28;20085;-77
2023/03/14 01:29:33;;;;;;;29.80;8.73;;;10.10;99.90;;;;;;4988216;28;20085;-76
2023/03/14 01:31:58;;;;;;;31.55;9.65;;;10.10;99.90;;;;;;4981090;28;20073;-77
2023/03/14 01:34:24;;;;;;;18.08;7.35;;;10.00;99.90;;;;;;4987307;28;20057;-77
2023/03/14 01:36:50;;;;;;;22.88;8.25;;;10.00;99.90;;;;;;4987759;28;20065;-77
2023/03/14 01:39:15;;;;;;;19.55;8.35;;;9.90;99.90;;;;;;4977379;28;20046;-76
2023/03/14 01:41:41;;;;;;;23.20;7.78;;;10.00;99.90;;;;;;4988344;28;20065;-76
2023/03/14 01:44:14;;;;;;;30.77;10.13;;;10.00;99.90;;;;;;4985916;28;20412;-77
2023/03/14 01:46:42;;;;;;;24.45;8.70;;;9.90;99.90;;;;;;4967807;28;20050;-77
2023/03/14 01:49:22;;;;;;;28.80;8.32;;;9.90;99.90;;;;;;4971475;28;20129;-77
2023/03/14 01:52:09;;;;;;;16.17;7.72;;;9.90;99.90;;;;;;4976045;28;20058;-77
2023/03/14 01:54:39;;;;;;;20.48;8.13;;;9.90;99.90;;;;;;4971901;28;20050;-77
2023/03/14 01:57:16;;;;;;;30.13;7.93;;;9.90;99.90;;;;;;4987956;28;20076;-76
2023/03/14 01:59:49;;;;;;;28.67;7.38;;;9.90;99.90;;;;;;4969777;28;20054;-77
2023/03/14 02:02:16;;;;;;;23.45;8.93;;;10.00;99.90;;;;;;4973144;28;20089;-77
2023/03/14 02:04:42;;;;;;;20.05;7.65;;;9.90;99.90;;;;;;4974378;28;20065;-77
2023/03/14 02:07:27;;;;;;;16.95;6.30;;;9.90;99.90;;;;;;4988543;28;20084;-77
2023/03/14 02:09:55;;;;;;;24.63;8.25;;;9.90;99.90;;;;;;4969093;28;20527;-77
2023/03/14 02:12:22;;;;;;;21.05;8.13;;;9.90;99.90;;;;;;4970927;28;20046;-77
2023/03/14 02:14:48;;;;;;;26.10;7.43;;;9.90;99.90;;;;;;4988916;28;20452;-77
2023/03/14 02:17:17;;;;;;;21.40;7.72;;;9.90;99.90;;;;;;4987192;28;20574;-77
2023/03/14 02:20:38;;;;;;;16.13;6.65;;;9.90;99.90;;;;;;4971178;28;20448;-77
2023/03/14 02:23:04;;;;;;;27.80;7.38;;;10.00;99.90;;;;;;4948075;28;20058;-77
2023/03/14 02:25:58;;;;;;;16.58;6.75;;;10.00;99.90;;;;;;4968815;28;20101;-77
2023/03/14 02:28:23;;;;;;;23.00;6.90;;;10.00;99.90;;;;;;4951452;28;20134;-77
2023/03/14 02:30:49;;;;;;;19.30;8.07;;;9.90;99.90;;;;;;4982442;28;20134;-76
2023/03/14 02:33:20;;;;;;;25.05;7.47;;;9.90;99.90;;;;;;4961907;28;20046;-77
2023/03/14 02:35:51;;;;;;;25.10;7.38;;;9.90;99.90;;;;;;4984522;28;20126;-77
2023/03/14 02:38:40;;;;;;;19.08;7.45;;;9.90;99.90;;;;;;4986948;28;20129;-76
2023/03/14 02:41:06;;;;;;;16.13;7.72;;;9.90;99.90;;;;;;4988544;28;20193;-77
2023/03/14 02:43:33;;;;;;;19.65;8.40;;;9.70;99.90;;;;;;4987297;28;20646;-77
2023/03/14 02:46:00;;;;;;;24.17;8.43;;;9.80;99.90;;;;;;4973657;28;20050;-77
2023/03/14 02:48:35;;;;;;;30.80;8.60;;;9.80;99.90;;;;;;4987158;28;20584;-77
2023/03/14 02:51:01;;;;;;;23.30;8.73;;;9.80;99.90;;;;;;4987091;28;20058;-77
2023/03/14 02:53:33;;;;;;;19.30;8.23;;;9.80;99.90;;;;;;4971203;28;20418;-77
2023/03/14 02:55:59;;;;;;;29.15;8.43;;;9.80;99.90;;;;;;4982350;28;20046;-77
2023/03/14 02:58:25;;;;;;;19.88;8.00;;;9.70;99.90;;;;;;4980288;28;20059;-77
2023/03/14 03:00:51;;;;;;;16.55;8.27;;;9.80;99.90;;;;;;4972900;28;20085;-77
2023/03/14 03:03:16;;;;;;;21.75;7.72;;;9.80;99.90;;;;;;4983045;28;20144;-77
2023/03/14 03:05:43;;;;;;;20.13;7.60;;;9.70;99.90;;;;;;4982846;28;20065;-77
2023/03/14 03:08:10;;;;;;;26.77;8.07;;;9.60;99.90;;;;;;4988363;28;20057;-77
2023/03/14 03:10:35;;;;;;;22.73;7.93;;;9.70;99.90;;;;;;4978892;28;20069;-77
2023/03/14 03:13:01;;;;;;;16.15;7.78;;;9.60;99.90;;;;;;4983952;28;20507;-78
2023/03/14 03:15:29;;;;;;;14.45;7.05;;;9.60;99.90;;;;;;4984676;28;20053;-77
2023/03/14 03:17:55;;;;;;;18.90;6.70;;;9.70;99.90;;;;;;4968187;28;20186;-77
2023/03/14 03:20:20;;;;;;;12.95;6.35;;;9.70;99.90;;;;;;4984324;28;20153;-77
2023/03/14 03:22:46;;;;;;;13.85;5.82;;;9.60;99.90;;;;;;4976799;28;20092;-77
2023/03/14 03:25:12;;;;;;;15.55;6.13;;;9.60;99.90;;;;;;4975403;28;20062;-77
2023/03/14 03:27:38;;;;;;;10.40;6.18;;;9.60;99.90;;;;;;4985986;28;20042;-77
2023/03/14 03:30:05;;;;;;;12.02;5.65;;;9.60;99.90;;;;;;4977968;28;20154;-77
2023/03/14 03:32:31;;;;;;;9.97;5.07;;;9.60;99.90;;;;;;4997683;28;20121;-77
2023/03/14 03:34:57;;;;;;;16.70;6.38;;;9.50;99.90;;;;;;4991275;28;20504;-78
2023/03/14 03:37:24;;;;;;;10.25;5.65;;;9.60;99.90;;;;;;4992263;28;20038;-77
2023/03/14 03:39:52;;;;;;;12.20;5.63;;;9.60;99.90;;;;;;4981089;28;20129;-77
2023/03/14 03:42:18;;;;;;;13.70;5.47;;;9.50;99.90;;;;;;4987218;28;20057;-77
2023/03/14 03:44:44;;;;;;;10.98;6.00;;;9.50;99.90;;;;;;4974031;28;20088;-77
2023/03/14 03:47:10;;;;;;;12.90;6.18;;;9.50;99.90;;;;;;4979508;28;20130;-77
2023/03/14 03:49:36;;;;;;;16.92;6.93;;;9.40;99.90;;;;;;4981135;28;20521;-77
2023/03/14 03:52:02;;;;;;;13.32;6.38;;;9.50;99.90;;;;;;4990835;28;20086;-77
2023/03/14 03:54:28;;;;;;;19.15;7.13;;;9.40;99.90;;;;;;4988898;28;20161;-77
2023/03/14 03:56:55;;;;;;;32.42;7.78;;;9.40;99.90;;;;;;4981503;28;20470;-77
2023/03/14 03:59:20;;;;;;;18.13;7.53;;;9.40;99.90;;;;;;4974318;28;20050;-77
2023/03/14 04:01:46;;;;;;;13.70;6.88;;;9.40;99.90;;;;;;4986676;28;20049;-77
2023/03/14 04:04:12;;;;;;;13.07;6.25;;;9.40;99.90;;;;;;4984523;28;20096;-77
2023/03/14 04:06:38;;;;;;;14.38;6.60;;;9.40;99.90;;;;;;4979400;28;20050;-78
2023/03/14 04:09:04;;;;;;;16.20;6.90;;;9.30;99.90;;;;;;4988928;28;20061;-77
2023/03/14 04:11:29;;;;;;;14.52;7.95;;;9.40;99.90;;;;;;4977373;28;20508;-77
2023/03/14 04:13:55;;;;;;;25.58;8.70;;;9.40;99.90;;;;;;4989080;28;20080;-77
2023/03/14 04:16:24;;;;;;;20.35;6.22;;;9.30;99.90;;;;;;4988921;28;20081;-77
2023/03/14 04:18:49;;;;;;;14.40;6.97;;;9.30;99.90;;;;;;4988523;28;20078;-78
2023/03/14 04:21:16;;;;;;;18.65;6.63;;;9.30;99.90;;;;;;4973660;28;20136;-77
2023/03/14 04:23:41;;;;;;;19.52;7.05;;;9.30;99.90;;;;;;4978183;28;20161;-77
2023/03/14 04:26:07;;;;;;;18.10;7.80;;;9.20;99.90;;;;;;4976797;28;20066;-77
2023/03/14 04:28:33;;;;;;;16.95;7.70;;;9.20;99.90;;;;;;4988203;28;20576;-77
2023/03/14 04:31:05;;;;;;;16.52;6.63;;;9.30;99.90;;;;;;4980002;28;20049;-77
2023/03/14 04:33:31;;;;;;;20.85;7.05;;;9.20;99.90;;;;;;4977702;28;20108;-78
2023/03/14 04:35:57;;;;;;;17.30;6.65;;;9.20;99.90;;;;;;4988931;28;20038;-77
2023/03/14 04:38:22;;;;;;;14.15;6.07;;;9.10;99.90;;;;;;4989344;28;20128;-77
2023/03/14 04:40:48;;;;;;;14.07;5.25;;;9.20;99.90;;;;;;4977635;28;20174;-77
2023/03/14 04:43:14;;;;;;;20.83;5.70;;;9.20;99.90;;;;;;4981325;28;20060;-77
2023/03/14 04:45:43;;;;;;;12.32;6.82;;;9.20;99.90;;;;;;4986492;28;20039;-78
2023/03/14 04:48:09;;;;;;;7.75;5.88;;;9.20;99.90;;;;;;4989240;28;20042;-77
2023/03/14 04:50:35;;;;;;;22.58;6.68;;;9.10;99.90;;;;;;4975767;28;20768;-77
2023/03/14 04:53:01;;;;;;;14.43;7.22;;;9.10;99.90;;;;;;4994502;28;20050;-78
2023/03/14 04:55:27;;;;;;;11.65;6.78;;;9.10;99.90;;;;;;4976128;28;20140;-77
2023/03/14 04:57:52;;;;;;;23.10;7.70;;;9.10;99.90;;;;;;4977714;28;20129;-77
2023/03/14 05:00:18;;;;;;;12.68;6.47;;;9.10;99.90;;;;;;4988264;28;20043;-78
2023/03/14 05:02:45;;;;;;;16.90;7.45;;;9.10;99.90;;;;;;4987009;28;20125;-77
2023/03/14 05:05:10;;;;;;;16.77;6.78;;;9.10;99.90;;;;;;4988479;28;20062;-77
2023/03/14 05:07:37;;;;;;;14.68;7.10;;;9.10;99.90;;;;;;4985362;28;20828;-77
2023/03/14 05:10:03;;;;;;;24.88;8.25;;;9.10;99.90;;;;;;4988915;28;20065;-78
2023/03/14 05:12:29;;;;;;;20.83;7.78;;;8.90;99.90;;;;;;4978786;28;20109;-77
2023/03/14 05:14:55;;;;;;;14.60;7.93;;;8.90;99.90;;;;;;4976828;28;20046;-78
2023/03/14 05:17:20;;;;;;;25.60;7.88;;;8.90;99.90;;;;;;4997078;28;20046;-77
2023/03/14 05:19:46;;;;;;;20.42;8.15;;;8.90;99.90;;;;;;4974582;28;20443;-77
2023/03/14 05:22:12;;;;;;;20.35;8.90;;;8.90;99.90;;;;;;4988079;28;20562;-78
2023/03/14 05:24:38;;;;;;;23.83;9.00;;;8.90;99.90;;;;;;4979360;28;20062;-77
2023/03/14 05:27:05;;;;;;;17.08;8.80;;;8.90;99.90;;;;;;4983304;28;20051;-77
2023/03/14 05:29:31;;;;;;;17.85;7.97;;;8.90;99.90;;;;;;4967926;28;20162;-78
2023/03/14 05:31:57;;;;;;;19.15;8.85;;;8.90;99.90;;;;;;4983794;28;20161;-78
2023/03/14 05:34:22;;;;;;;18.38;8.55;;;8.80;99.90;;;;;;4988644;28;20109;-78
2023/03/14 05:36:48;;;;;;;14.65;8.25;;;8.90;99.90;;;;;;4988370;28;20480;-78
2023/03/14 05:39:14;;;;;;;13.32;7.22;;;8.90;99.90;;;;;;4988541;28;20042;-77
2023/03/14 05:41:39;;;;;;;17.60;8.52;;;8.80;99.90;;;;;;4984126;28;20504;-77
2023/03/14 05:44:05;;;;;;;22.25;9.38;;;8.90;99.90;;;;;;4987152;28;20415;-78
2023/03/14 05:46:31;;;;;;;13.50;7.00;;;8.90;99.90;;;;;;4988105;28;20055;-78
2023/03/14 05:49:00;;;;;;;16.75;8.40;;;8.90;99.90;;;;;;4978722;28;20422;-77
2023/03/14 05:51:26;;;;;;;18.73;9.02;;;8.90;99.90;;;;;;4988194;28;20078;-78
2023/03/14 05:53:51;;;;;;;17.13;7.50;;;9.00;99.90;;;;;;4987087;28;20081;-78
2023/03/14 05:56:17;;;;;;;16.02;7.20;;;8.90;99.90;;;;;;4987516;28;20918;-78
2023/03/14 05:58:43;;;;;;;19.27;8.13;;;8.90;99.90;;;;;;4975383;28;20085;-79
2023/03/14 06:01:09;;;;;;;17.38;8.32;;;8.90;99.90;;;;;;4988942;28;20129;-79
2023/03/14 06:03:35;;;;;;;12.88;7.25;;;8.80;99.90;;;;;;4971658;28;20073;-79
2023/03/14 06:06:01;;;;;;;22.70;8.13;;;8.90;99.90;;;;;;5001264;28;20042;-80
2023/03/14 06:08:27;;;;;;;15.15;7.57;;;8.90;99.90;;;;;;4987587;28;20046;-80
2023/03/14 06:10:53;;;;;;;19.45;7.70;;;8.90;99.90;;;;;;4976368;28;20065;-80
2023/03/14 06:13:19;;;;;;;13.85;6.68;;;8.90;99.90;;;;;;4974447;28;20052;-80
2023/03/14 06:15:45;;;;;;;18.00;7.13;;;8.80;99.90;;;;;;4988223;28;20112;-80
2023/03/14 06:18:10;;;;;;;25.17;8.18;;;8.90;99.90;;;;;;4975743;28;20108;-80
2023/03/14 06:20:38;;;;;;;12.35;7.22;;;8.80;99.90;;;;;;4988743;28;20567;-80
2023/03/14 06:23:05;;;;;;;19.05;7.45;;;8.90;99.90;;;;;;4986081;28;20054;-80
2023/03/14 06:25:33;;;;;;;15.48;8.23;;;8.90;99.90;;;;;;4979726;28;20136;-80
2023/03/14 06:27:59;;;;;;;20.58;8.65;;;8.80;99.90;;;;;;4978001;28;20046;-80
2023/03/14 06:30:24;;;;;;;11.50;7.55;;;8.80;99.90;;;;;;4975060;28;20166;-80
2023/03/14 06:32:50;;;;;;;15.45;7.50;;;8.70;99.90;;;;;;4988426;28;20411;-80
2023/03/14 06:35:16;;;;;;;17.73;8.45;;;8.80;99.90;;;;;;4975964;28;20122;-80
2023/03/14 06:37:41;;;;;;;10.98;7.28;;;8.80;99.90;;;;;;4975022;28;20039;-81
2023/03/14 06:40:16;;;;;;;16.23;6.22;;;8.80;99.90;;;;;;4981802;28;20403;-80
2023/03/14 06:42:42;;;;;;;16.55;7.50;;;8.80;99.90;;;;;;4991851;28;20081;-81
2023/03/14 06:45:09;;;;;;;14.50;7.50;;;8.80;99.90;;;;;;4990530;28;20049;-80
2023/03/14 06:47:35;;;;;;;13.13;7.70;;;8.70;99.90;;;;;;4975284;28;20438;-80
2023/03/14 06:50:01;;;;;;;24.52;9.55;;;8.80;99.90;;;;;;4983583;28;20050;-79
2023/03/14 06:52:27;;;;;;;10.73;5.72;;;8.80;99.90;;;;;;4976318;28;20035;-80
2023/03/14 06:54:52;;;;;;;17.77;7.30;;;8.80;99.90;;;;;;4993405;28;20054;-80
2023/03/14 06:57:18;;;;;;;15.23;6.82;;;8.80;99.90;;;;;;4974209;28;20668;-81
2023/03/14 06:59:44;;;;;;;10.50;5.82;;;8.80;99.90;;;;;;4978753;28;20054;-80
2023/03/14 07:02:13;;;;;;;14.70;6.38;;;8.70;99.90;;;;;;4984747;28;20062;-80
2023/03/14 07:04:39;;;;;;;15.75;7.13;;;8.80;99.90;;;;;;4991126;28;20042;-81
2023/03/14 07:07:05;;;;;;;17.30;6.63;;;8.80;99.90;;;;;;4990866;28;20158;-81
2023/03/14 07:09:31;;;;;;;11.98;6.50;;;8.80;99.90;;;;;;4975457;28;20082;-81
2023/03/14 07:11:57;;;;;;;11.93;6.38;;;8.80;99.90;;;;;;4985379;28;20061;-81
2023/03/14 07:14:23;;;;;;;10.85;6.65;;;8.80;99.90;;;;;;4986987;28;20054;-81
2023/03/14 07:16:49;;;;;;;18.02;6.47;;;8.80;99.90;;;;;;4990961;28;20046;-81
2023/03/14 07:19:15;;;;;;;14.02;6.65;;;8.80;99.90;;;;;;4979221;28;20411;-80
2023/03/14 07:21:40;;;;;;;12.80;6.07;;;8.90;99.90;;;;;;4991108;28;20046;-80
2023/03/14 07:24:07;;;;;;;17.77;7.15;;;8.80;99.90;;;;;;4985988;28;20891;-80
2023/03/14 07:26:33;;;;;;;13.35;6.95;;;8.80;99.90;;;;;;4989309;28;20053;-79
2023/03/14 07:28:59;;;;;;;7.22;2.55;;;8.80;99.90;;;;;;4980154;28;20057;-79
2023/03/14 07:31:25;;;;;;;6.00;1.38;;;8.80;99.90;;;;;;4991032;28;20108;-78
2023/03/14 07:33:51;;;;;;;3.72;1.23;;;8.60;99.90;;;;;;4979641;28;20054;-78
2023/03/14 07:36:17;;;;;;;5.35;3.55;;;8.40;99.90;;;;;;4990426;28;20061;-78
2023/03/14 07:38:42;;;;;;;9.35;8.43;;;8.20;99.90;;;;;;4989777;28;20538;-78
2023/03/14 07:41:08;;;;;;;9.93;5.95;;;8.10;99.90;;;;;;4990589;28;20110;-79
2023/03/14 07:43:34;;;;;;;7.45;4.45;;;7.90;99.90;;;;;;4990457;28;20050;-78
2023/03/14 07:46:00;;;;;;;11.05;4.47;;;7.80;99.90;;;;;;4989293;28;20058;-78
2023/03/14 07:48:26;;;;;;;5.20;2.38;;;7.70;99.90;;;;;;4982165;28;20511;-78
2023/03/14 07:50:52;;;;;;;10.30;2.60;;;7.50;99.90;;;;;;4981419;28;20117;-78
2023/03/14 07:53:19;;;;;;;10.93;2.30;;;7.30;99.90;;;;;;4980529;28;20132;-78
2023/03/14 07:55:45;;;;;;;4.43;2.13;;;7.20;99.90;;;;;;4973376;28;20511;-78
2023/03/14 07:58:10;;;;;;;8.18;1.90;;;6.90;99.90;;;;;;4978849;28;20046;-78
2023/03/14 08:00:36;;;;;;;10.07;2.67;;;6.70;99.90;;;;;;4984759;28;20516;-78
2023/03/14 08:03:02;;;;;;;8.30;1.83;;;6.60;99.90;;;;;;4988854;28;20057;-78
2023/03/14 08:05:28;;;;;;;12.77;2.13;;;6.50;99.90;;;;;;4982698;28;20447;-78
2023/03/14 08:07:53;;;;;;;9.35;2.17;;;6.30;99.90;;;;;;4989390;28;20046;-83
2023/03/14 08:10:22;;;;;;;4.50;1.83;;;6.20;99.90;;;;;;4975097;28;20038;-85
2023/03/14 08:12:56;;;;;;;;;;;6.00;99.90;;;;;;4982329;28;20038;-86
2023/03/14 08:15:23;;;;;;;3.65;1.58;;;5.80;99.90;;;;;;4973119;28;19925;-86
2023/03/14 08:17:51;;;;;;;5.60;1.63;;;5.70;99.90;;;;;;4974330;28;20050;-86
2023/03/14 08:20:18;;;;;;;3.53;1.30;;;5.70;99.90;;;;;;4975838;28;20365;-87
2023/03/14 08:22:44;;;;;;;3.72;0.90;;;5.60;99.90;;;;;;4976079;28;20059;-87
2023/03/14 08:25:12;;;;;;;7.72;5.60;;;5.50;99.90;;;;;;4972980;28;20535;-87
2023/03/14 08:27:40;;;;;;;;;;;5.40;99.90;;;;;;4971354;28;20038;-85
2023/03/14 08:30:12;;;;;;;5.22;2.35;;;5.30;99.90;;;;;;4953117;28;19945;-83
2023/03/14 08:32:38;;;;;;;1.55;1.20;;;5.20;99.90;;;;;;4964263;28;20168;-83
2023/03/14 08:35:05;;;;;;;7.72;1.65;;;5.10;99.90;;;;;;4968562;28;20043;-83
2023/03/14 08:37:33;;;;;;;1.70;1.42;;;5.20;99.90;;;;;;4985091;28;20046;-83
2023/03/14 08:39:59;;;;;;;2.40;1.60;;;5.40;99.90;;;;;;4963235;28;20070;-83
2023/03/14 08:42:25;;;;;;;5.40;2.78;;;5.30;99.90;;;;;;4969220;28;20081;-84
2023/03/14 08:44:52;;;;;;;4.93;2.83;;;5.30;99.90;;;;;;4969365;28;20042;-83
2023/03/14 08:47:17;;;;;;;2.10;1.30;;;5.40;99.90;;;;;;4969262;28;20047;-77
2023/03/14 08:49:43;;;;;;;1.88;0.95;;;5.40;99.90;;;;;;4965507;28;20520;-78
2023/03/14 08:52:09;;;;;;;4.10;0.98;;;5.40;99.90;;;;;;4968583;28;20047;-83
2023/03/14 08:54:35;;;;;;;4.93;1.38;;;5.40;99.90;;;;;;4968641;28;20039;-83
2023/03/14 08:57:00;;;;;;;6.32;1.30;;;5.40;99.90;;;;;;4968870;28;20049;-83
2023/03/14 08:59:26;;;;;;;4.88;1.42;;;5.50;99.90;;;;;;4966929;28;20094;-85
2023/03/14 09:01:52;;;;;;;10.15;2.10;;;5.50;99.90;;;;;;4968565;28;20047;-85
2023/03/14 09:04:17;;;;;;;4.68;1.95;;;5.50;99.90;;;;;;4967240;28;20527;-85
2023/03/14 09:06:43;;;;;;;126.03;22.15;;;5.50;99.90;;;;;;4968823;28;20047;-83
2023/03/14 09:09:09;;;;;;;14.35;3.90;;;5.60;99.90;;;;;;4984841;28;20074;-84
2023/03/14 09:11:35;;;;;;;5.93;3.03;;;5.60;99.90;;;;;;4968381;28;20415;-83
2023/03/14 09:14:01;;;;;;;5.78;2.92;;;5.60;99.90;;;;;;4984943;28;20484;-87
2023/03/14 09:16:27;;;;;;;18.83;3.40;;;5.70;99.90;;;;;;4985702;28;20053;-87
2023/03/14 09:18:59;;;;;;;8.35;2.75;;;5.80;99.90;;;;;;4965739;28;20043;-86
2023/03/14 09:21:26;;;;;;;7.80;2.65;;;5.90;99.90;;;;;;4970043;28;20039;-87
2023/03/14 09:23:51;;;;;;;9.98;2.15;;;5.90;99.90;;;;;;4969379;28;20082;-86
2023/03/14 09:26:17;;;;;;;11.10;2.97;;;5.90;99.90;;;;;;4979167;28;20456;-85
2023/03/14 09:28:43;;;;;;;14.32;3.45;;;5.90;99.90;;;;;;4985656;28;20518;-85
2023/03/14 09:31:10;;;;;;;11.90;3.58;;;6.00;99.90;;;;;;4967845;28;21110;-82
2023/03/14 09:33:36;;;;;;;18.27;4.50;;;6.00;99.90;;;;;;4952515;28;20113;-86
2023/03/14 09:36:03;;;;;;;18.55;5.43;;;6.10;99.90;;;;;;4969192;28;20093;-86
2023/03/14 09:38:29;;;;;;;11.75;2.85;;;6.20;99.90;;;;;;4968433;28;20137;-86
2023/03/14 09:40:57;;;;;;;17.55;3.58;;;6.30;99.90;;;;;;4969079;28;20130;-85
2023/03/14 09:43:25;;;;;;;30.08;5.03;;;6.40;99.90;;;;;;4981228;28;20408;-87
2023/03/14 09:45:51;;;;;;;19.10;4.05;;;6.50;99.90;;;;;;4969206;28;20047;-87
2023/03/14 09:48:26;;;;;;;14.02;3.67;;;6.70;99.90;;;;;;4969255;28;20101;-85
2023/03/14 09:50:56;;;;;;;14.90;3.80;;;6.70;99.90;;;;;;4967576;28;20518;-85
2023/03/14 09:53:33;;;;;;;23.42;4.25;;;6.70;99.90;;;;;;4968371;28;20050;-86
2023/03/14 09:55:59;;;;;;;14.25;3.78;;;6.90;99.90;;;;;;4955989;28;20041;-85
2023/03/14 09:58:26;;;;;;;25.30;5.05;;;7.00;99.90;;;;;;4968421;28;20050;-86
2023/03/14 10:00:57;;;;;;;27.65;4.90;;;7.00;99.90;;;;;;4968834;28;21409;-84
2023/03/14 10:03:31;;;;;;;26.95;6.53;;;7.10;99.90;;;;;;4962343;28;20038;-86
2023/03/14 10:05:57;;;;;;;21.13;5.25;;;7.10;99.90;;;;;;4968788;28;20066;-85
2023/03/14 10:08:23;;;;;;;24.98;5.95;;;7.20;99.90;;;;;;4966682;28;20046;-84
2023/03/14 10:10:50;;;;;;;26.48;5.88;;;7.10;99.90;;;;;;4964797;28;20043;-81
2023/03/14 10:13:24;;;;;;;23.70;5.65;;;7.00;99.90;;;;;;4968373;28;20054;-84
2023/03/14 10:15:54;;;;;;;24.38;4.90;;;6.90;99.90;;;;;;4968933;28;20566;-85
2023/03/14 10:18:21;;;;;;;16.90;5.20;;;6.90;99.90;;;;;;4968757;28;20039;-84
2023/03/14 10:20:49;;;;;;;19.17;4.53;;;6.90;99.90;;;;;;4968879;28;20110;-85
2023/03/14 10:23:15;;;;;;;23.38;7.18;;;6.90;99.90;;;;;;4984220;28;20051;-85
2023/03/14 10:25:57;;;;;;;16.33;4.88;;;6.90;99.90;;;;;;4967382;28;20047;-85
2023/03/14 10:28:28;;;;;;;22.75;5.13;;;7.00;99.90;;;;;;4966824;28;20175;-84
2023/03/14 10:30:55;;;;;;;20.80;6.05;;;7.00;99.90;;;;;;4967505;28;20051;-83
2023/03/14 10:33:30;;;;;;;22.63;5.35;;;7.00;99.90;;;;;;4962031;28;20047;-85
2023/03/14 10:36:01;;;;;;;39.92;6.03;;;7.10;99.90;;;;;;4965032;28;20047;-85
2023/03/14 10:38:31;;;;;;;20.00;5.38;;;7.10;99.90;;;;;;4948855;28;20097;-84
2023/03/14 10:40:58;;;;;;;15.38;4.40;;;7.00;99.90;;;;;;4967702;28;20500;-84
2023/03/14 10:43:35;;;;;;;32.60;7.18;;;7.20;99.90;;;;;;4968090;28;20042;-84
2023/03/14 10:46:15;;;;;;;17.63;5.03;;;7.10;99.90;;;;;;4962948;28;20042;-86
2023/03/14 10:48:41;;;;;;;28.98;5.53;;;7.00;99.90;;;;;;4967698;28;20047;-83
2023/03/14 10:51:16;;;;;;;17.23;4.90;;;6.90;99.90;;;;;;4983877;28;20100;-85
2023/03/14 10:53:48;;;;;;;38.38;6.47;;;7.00;99.90;;;;;;4966970;28;20043;-85
2023/03/14 10:56:15;;;;;;;21.60;6.05;;;7.00;99.90;;;;;;4967593;28;20137;-82
2023/03/14 10:58:50;;;;;;;60.30;8.40;;;7.00;99.90;;;;;;4967346;28;20058;-85
2023/03/14 11:01:53;;;;;;;21.02;6.28;;;7.00;99.90;;;;;;4960587;28;20090;-85
2023/03/14 11:04:31;;;;;;;19.08;6.13;;;7.00;99.90;;;;;;4965196;28;20051;-85
2023/03/14 11:07:19;;;;;;;;;;;7.00;99.90;;;;;;4963956;28;20113;-85
2023/03/14 11:10:00;;;;;;;35.88;5.35;;;7.10;99.90;;;;;;4962941;28;20430;-84
2023/03/14 11:12:32;;;;;;;15.63;4.80;;;7.10;99.90;;;;;;4962920;28;20046;-84
2023/03/14 11:15:05;;;;;;;27.20;6.78;;;7.20;99.90;;;;;;4966122;28;20401;-84
2023/03/14 11:17:43;;;;;;;19.50;5.28;;;7.30;99.90;;;;;;4981398;28;20035;-84
2023/03/14 11:20:28;;;;;;;25.63;4.85;;;7.30;99.90;;;;;;4968143;28;20051;-85
2023/03/14 11:23:41;;;;;;;14.25;4.53;;;7.30;99.90;;;;;;4967195;28;20066;-84
2023/03/14 11:26:47;;;;;;;15.50;3.80;;;7.30;99.90;;;;;;4907084;28;20058;-85
2023/03/14 11:29:57;;;;;;;27.13;3.35;;;7.30;99.90;;;;;;4963150;28;20093;-84
2023/03/14 11:32:37;;;;;;;16.80;4.20;;;7.30;99.90;;;;;;4932638;28;20512;-77
2023/03/14 11:35:13;;;;;;;24.50;4.25;;;7.30;99.90;;;;;;4970758;28;20560;-78
2023/03/14 11:37:47;;;;;;;15.57;3.85;;;7.40;99.90;;;;;;4970612;28;20135;-78
2023/03/14 11:40:14;;;;;;;15.10;3.75;;;7.40;99.90;;;;;;4987430;28;20528;-78
2023/03/14 11:42:44;;;;;;;14.57;3.97;;;7.30;99.90;;;;;;4988015;28;20049;-78
2023/03/14 11:45:36;;;;;;;14.52;4.07;;;7.40;99.90;;;;;;4971661;28;20051;-78
2023/03/14 11:48:28;;;;;;;21.83;4.32;;;7.60;99.90;;;;;;4977037;28;20047;-78
2023/03/14 11:50:57;;;;;;;10.90;3.47;;;7.70;99.90;;;;;;4970364;28;20070;-77
2023/03/14 11:53:35;;;;;;;13.60;4.00;;;7.70;99.90;;;;;;4969989;28;20432;-76
2023/03/14 11:56:01;;;;;;;7.38;3.10;;;7.80;99.90;;;;;;4977807;28;20858;-78
2023/03/14 11:58:31;;;;;;;7.82;3.08;;;7.80;99.90;;;;;;4982916;28;20912;-78
2023/03/14 12:01:00;;;;;;;8.70;2.58;;;8.00;99.90;;;;;;4986461;28;20057;-78
2023/03/14 12:03:51;;;;;;;13.93;3.40;;;7.80;99.90;;;;;;4968415;28;20074;-78
2023/03/14 12:06:25;;;;;;;10.00;2.85;;;7.80;99.90;;;;;;4969079;28;21147;-78
2023/03/14 12:08:53;;;;;;;9.32;3.05;;;7.70;99.90;;;;;;4984005;28;20043;-78
2023/03/14 12:11:33;;;;;;;13.23;2.25;;;7.90;99.90;;;;;;4967154;28;20050;-78
2023/03/14 12:14:00;;;;;;;6.13;2.55;;;8.00;99.90;;;;;;4979280;28;20121;-78
2023/03/14 12:16:37;;;;;;;12.30;3.60;;;8.10;99.90;;;;;;4986499;28;20100;-78
2023/03/14 12:19:21;;;;;;;12.20;2.72;;;8.20;99.90;;;;;;4970213;28;20174;-78
2023/03/14 12:21:54;;;;;;;5.93;2.83;;;8.40;99.90;;;;;;4969968;28;20101;-77
2023/03/14 12:24:25;;;;;;;5.07;2.45;;;8.50;99.90;;;;;;4963851;28;20515;-78
2023/03/14 12:27:02;;;;;;;5.78;2.25;;;8.60;99.90;;;;;;4969722;28;20599;-77
2023/03/14 12:29:29;;;;;;;5.30;2.55;;;8.80;99.90;;;;;;4970030;28;20059;-77
2023/03/14 12:32:01;;;;;;;10.20;3.58;;;8.80;99.00;;;;;;4969384;28;20131;-79
2023/03/14 12:34:39;;;;;;;4.78;1.98;;;8.80;90.40;;;;;;4969431;28;20058;-77
2023/03/14 12:37:47;;;;;;;12.27;2.83;;;8.70;93.90;;;;;;4985423;28;20055;-77
2023/03/14 12:40:31;;;;;;;7.70;2.72;;;8.50;89.80;;;;;;4943887;28;20058;-77
2023/03/14 12:43:04;;;;;;;8.30;2.55;;;8.60;97.10;;;;;;4984697;28;20183;-79
2023/03/14 12:45:36;;;;;;;8.30;3.03;;;8.80;99.90;;;;;;4970327;28;20121;-78
2023/03/14 12:48:14;;;;;;;12.35;2.17;;;8.90;95.00;;;;;;4985128;28;20053;-78
2023/03/14 12:50:42;;;;;;;;;;;8.90;93.60;;;;;;4968719;28;20051;-77
2023/03/14 12:53:15;;;;;;;4.72;2.05;;;8.80;96.60;;;;;;4966157;28;19922;-77
2023/03/14 12:56:04;;;;;;;4.47;2.33;;;8.60;94.40;;;;;;4961904;28;20057;-77
2023/03/14 12:58:38;;;;;;;9.88;2.92;;;8.60;93.00;;;;;;4963112;28;20051;-78